Time;durP1;ratioP1;P1;durP2;ratioP2;P2;SDS_P1;SDS_P2;PMS_P1;PMS_P2;Temp;Humidity;BMP_temperature;BMP_pressure;BME280_temperature;BME280_humidity;BME280_pressure;Samples;Min_cycle;Max_cycle;Signal;HPM_P1;HPM_P2
2022/12/18 00:00:42;;;;;;;14.25;7.55;;;;;;;-0.21;97.50;100589.67;1657332;85;21214;-58
2022/12/18 00:03:11;;;;;;;14.03;7.12;;;;;;;-0.23;97.04;100587.10;1662610;85;21249;-58
2022/12/18 00:05:50;;;;;;;16.07;7.75;;;;;;;-0.30;96.32;100589.06;1659463;85;21163;-58
2022/12/18 00:08:20;;;;;;;15.50;7.80;;;;;;;-0.34;96.23;100589.80;1658603;85;21171;-58
2022/12/18 00:10:49;;;;;;;13.72;7.72;;;;;;;-0.37;96.11;100594.09;1657500;85;21174;-57
2022/12/18 00:13:17;;;;;;;15.45;7.65;;;;;;;-0.38;96.10;100593.72;1674874;85;21230;-58
2022/12/18 00:15:47;;;;;;;14.68;7.65;;;;;;;-0.39;95.75;100595.55;1661576;85;21190;-59
2022/12/18 00:18:16;;;;;;;15.18;7.37;;;;;;;-0.42;95.45;100601.19;1665778;85;21241;-58
2022/12/18 00:20:46;;;;;;;17.15;8.65;;;;;;;-0.43;95.41;100599.47;1671492;83;21190;-58
2022/12/18 00:23:15;;;;;;;17.32;8.45;;;;;;;-0.43;95.36;100604.86;1666725;85;21191;-60
2022/12/18 00:25:44;;;;;;;17.02;8.83;;;;;;;-0.42;95.38;100614.64;1670364;85;21165;-59
2022/12/18 00:28:14;;;;;;;17.35;8.98;;;;;;;-0.42;95.30;100610.60;1670692;85;22117;-59
2022/12/18 00:30:43;;;;;;;16.70;7.97;;;;;;;-0.40;95.55;100618.07;1669827;85;21131;-59
2022/12/18 00:33:13;;;;;;;17.92;8.80;;;;;;;-0.35;95.43;100618.56;1662275;85;21582;-59
2022/12/18 00:35:41;;;;;;;15.98;7.80;;;;;;;-0.37;95.01;100628.59;1668377;85;21606;-60
2022/12/18 00:38:10;;;;;;;15.75;7.90;;;;;;;-0.38;94.68;100621.98;1685374;83;21131;-59
2022/12/18 00:40:39;;;;;;;17.15;8.28;;;;;;;-0.39;94.72;100630.55;1701030;83;21846;-59
2022/12/18 00:43:10;;;;;;;14.85;8.05;;;;;;;-0.39;94.57;100625.66;1686151;85;21552;-59
2022/12/18 00:45:39;;;;;;;15.40;7.85;;;;;;;-0.37;94.70;100626.39;1662806;84;21143;-59
2022/12/18 00:48:08;;;;;;;17.07;8.88;;;;;;;-0.37;94.11;100638.02;1667878;85;21103;-60
2022/12/18 00:50:38;;;;;;;18.23;8.93;;;;;;;-0.43;93.70;100637.16;1668102;84;21114;-58
2022/12/18 00:53:06;;;;;;;15.85;8.18;;;;;;;-0.50;93.93;100635.93;1676704;85;21087;-59
2022/12/18 00:55:41;;;;;;;18.17;8.60;;;;;;;-0.50;94.07;100639.97;1671294;85;21694;-57
2022/12/18 00:58:10;;;;;;;17.23;8.28;;;;;;;-0.50;94.08;100643.14;1648707;85;21068;-59
2022/12/18 01:00:39;;;;;;;16.48;8.53;;;;;;;-0.55;93.87;100656.97;1665648;85;21095;-59
2022/12/18 01:03:10;;;;;;;15.18;7.87;;;;;;;-0.58;93.90;100651.82;1680594;84;21593;-60
2022/12/18 01:05:41;;;;;;;17.48;8.58;;;;;;;-0.59;93.79;100662.22;1672740;83;21153;-59
2022/12/18 01:08:09;;;;;;;17.32;9.00;;;;;;;-0.58;93.88;100665.77;1687295;84;21023;-58
2022/12/18 01:10:43;;;;;;;18.90;9.58;;;;;;;-0.58;93.73;100661.73;1699998;84;21086;-58
2022/12/18 01:13:13;;;;;;;15.95;8.20;;;;;;;-0.61;93.16;100656.09;1693821;84;21031;-59
2022/12/18 01:15:50;;;;;;;14.58;7.72;;;;;;;-0.67;92.87;100671.34;1690099;84;21041;-59
2022/12/18 01:18:18;;;;;;;13.83;7.80;;;;;;;-0.72;92.60;100658.73;1685650;83;21309;-59
2022/12/18 01:20:48;;;;;;;14.05;7.47;;;;;;;-0.76;92.10;100678.78;1687527;83;21004;-58
2022/12/18 01:23:17;;;;;;;18.30;8.95;;;;;;;-0.80;91.87;100675.96;1692779;84;21059;-59
2022/12/18 01:25:46;;;;;;;18.80;9.08;;;;;;;-0.85;91.91;100678.15;1685813;84;21911;-58
2022/12/18 01:28:14;;;;;;;16.57;8.50;;;;;;;-0.80;92.15;100696.14;1684332;84;21063;-59
2022/12/18 01:30:43;;;;;;;19.75;9.05;;;;;;;-0.80;92.32;100692.10;1699541;84;21078;-58
2022/12/18 01:33:12;;;;;;;17.02;8.30;;;;;;;-0.80;92.41;100697.48;1690423;84;21062;-58
2022/12/18 01:35:44;;;;;;;16.32;8.40;;;;;;;-0.78;92.22;100694.19;1700259;84;21667;-58
2022/12/18 01:38:12;;;;;;;17.57;8.65;;;;;;;-0.80;92.18;100706.41;1695725;84;21336;-59
2022/12/18 01:40:42;;;;;;;16.10;8.60;;;;;;;-0.80;92.35;100713.62;1691942;84;21462;-59
2022/12/18 01:43:11;;;;;;;18.95;8.90;;;;;;;-0.81;92.09;100707.87;1694992;84;21478;-57
2022/12/18 01:45:42;;;;;;;16.87;8.50;;;;;;;-0.85;91.88;100707.25;1690681;84;21432;-59
2022/12/18 01:48:11;;;;;;;19.75;9.15;;;;;;;-0.92;91.54;100710.04;1694396;84;21047;-58
2022/12/18 01:50:41;;;;;;;20.45;9.73;;;;;;;-0.95;91.81;100707.58;1693489;84;21517;-58
2022/12/18 01:53:18;;;;;;;17.30;8.53;;;;;;;-0.97;91.84;100718.45;1693809;84;21426;-58
2022/12/18 01:55:54;;;;;;;18.67;9.68;;;;;;;-0.97;91.93;100718.45;1685848;84;21008;-59
2022/12/18 01:58:37;;;;;;;23.25;10.40;;;;;;;-1.03;91.37;100722.95;1683988;84;21567;-56
2022/12/18 02:01:07;;;;;;;20.52;9.95;;;;;;;-1.10;91.00;100714.98;1691266;84;21546;-57
2022/12/18 02:03:39;;;;;;;18.35;8.45;;;;;;;-1.15;91.19;100727.05;1656338;85;21043;-57
2022/12/18 02:06:24;;;;;;;22.17;9.55;;;;;;;-1.17;91.14;100720.93;1662405;85;21067;-58
2022/12/18 02:09:19;;;;;;;18.45;9.10;;;;;;;-1.18;91.34;100727.28;1655199;85;21197;-58
2022/12/18 02:12:24;;;;;;;16.60;8.38;;;;;;;-1.17;91.55;100727.17;1657725;85;21572;-57
2022/12/18 02:15:19;;;;;;;20.45;9.20;;;;;;;-1.18;91.15;100729.48;1671352;85;21051;-56
2022/12/18 02:18:07;;;;;;;21.17;8.93;;;;;;;-1.19;91.40;100738.52;1652233;85;21040;-58
2022/12/18 02:20:40;;;;;;;21.20;8.95;;;;;;;-1.21;91.16;100735.58;1657639;85;21576;-57
2022/12/18 02:23:23;;;;;;;22.17;10.45;;;;;;;-1.24;90.95;100743.38;1670374;85;21111;-59
2022/12/18 02:26:32;;;;;;;27.07;12.05;;;;;;;-1.24;91.22;100735.80;1663420;85;21545;-58
2022/12/18 02:29:17;;;;;;;22.00;10.85;;;;;;;-1.23;91.21;100735.69;1704304;83;21084;-58
2022/12/18 02:31:53;;;;;;;25.12;11.00;;;;;;;-1.26;91.01;100752.05;1686810;84;21525;-58
2022/12/18 02:34:26;;;;;;;24.55;10.98;;;;;;;-1.27;91.36;100753.02;1713347;83;21064;-56
2022/12/18 02:36:56;;;;;;;20.82;10.08;;;;;;;-1.25;91.39;100754.25;1674949;85;21548;-58
2022/12/18 02:39:26;;;;;;;24.00;10.10;;;;;;;-1.25;91.40;100755.59;1664583;85;21055;-57
2022/12/18 02:42:02;;;;;;;22.73;11.57;;;;;;;-1.29;91.37;100757.65;1658251;85;21080;-57
2022/12/18 02:44:32;;;;;;;23.27;10.82;;;;;;;-1.29;91.62;100760.34;1657640;85;21553;-56
2022/12/18 02:47:02;;;;;;;25.75;10.85;;;;;;;-1.29;91.76;100756.31;1666051;85;21092;-56
2022/12/18 02:49:38;;;;;;;23.38;10.82;;;;;;;-1.26;91.56;100778.07;1667176;85;21063;-58
2022/12/18 02:52:23;;;;;;;19.90;9.68;;;;;;;-1.28;91.52;100772.81;1663852;84;21058;-57
2022/12/18 02:55:01;;;;;;;20.55;9.08;;;;;;;-1.29;91.35;100780.50;1672047;85;21458;-58
2022/12/18 02:57:45;;;;;;;20.32;9.48;;;;;;;-1.35;91.01;100788.98;1657388;85;21063;-57
2022/12/18 03:00:31;;;;;;;17.70;8.83;;;;;;;-1.38;91.01;100794.58;1674163;85;21486;-58
2022/12/18 03:03:25;;;;;;;22.58;10.70;;;;;;;-1.40;91.07;100801.41;1673805;85;21067;-58
2022/12/18 03:06:15;;;;;;;20.60;9.00;;;;;;;-1.40;91.22;100805.92;1676589;85;21110;-57
2022/12/18 03:08:47;;;;;;;19.85;9.00;;;;;;;-1.41;91.20;100812.27;1668913;85;21394;-58
2022/12/18 03:12:22;;;;;;;21.25;9.68;;;;;;;-1.45;91.19;100824.21;1657470;85;21460;-57
2022/12/18 03:13:55;;;;;;;20.82;9.78;;;;;;;-1.47;90.97;100829.70;1669676;85;21055;-57
2022/12/18 03:16:28;;;;;;;19.17;9.40;;;;;;;-1.45;91.28;100824.21;1664893;85;21055;-58
2022/12/18 03:19:12;;;;;;;18.57;9.30;;;;;;;-1.42;90.96;100832.05;1678971;85;21076;-58
2022/12/18 03:21:45;;;;;;;21.05;9.35;;;;;;;-1.42;90.82;100836.95;1661431;85;21157;-59
2022/12/18 03:24:15;;;;;;;20.48;9.43;;;;;;;-1.40;90.69;100843.55;1679790;85;21102;-58
2022/12/18 03:26:47;;;;;;;19.12;9.33;;;;;;;-1.40;90.63;100848.92;1678932;85;21546;-58
2022/12/18 03:29:31;;;;;;;19.82;8.65;;;;;;;-1.43;90.23;100852.69;1694244;84;21470;-57
2022/12/18 03:32:14;;;;;;;17.57;8.25;;;;;;;-1.49;89.15;100852.27;1689260;84;21498;-59
2022/12/18 03:34:43;;;;;;;17.87;8.85;;;;;;;-1.57;88.57;100858.20;1690752;84;21020;-58
2022/12/18 03:37:15;;;;;;;16.75;7.97;;;;;;;-1.62;88.59;100857.66;1691848;84;21066;-57
2022/12/18 03:39:44;;;;;;;20.82;9.58;;;;;;;-1.69;87.91;100854.55;1687205;84;21039;-57
2022/12/18 03:42:21;;;;;;;17.77;8.65;;;;;;;-1.71;88.11;100856.97;1660739;85;21483;-58
2022/12/18 03:45:23;;;;;;;18.40;8.43;;;;;;;-1.70;88.39;100862.23;1675205;84;21063;-58
2022/12/18 03:48:18;;;;;;;17.87;8.03;;;;;;;-1.70;88.28;100868.09;1676101;84;21526;-58
2022/12/18 03:50:57;;;;;;;17.00;8.45;;;;;;;-1.75;87.74;100867.07;1666676;84;21047;-58
2022/12/18 03:53:54;;;;;;;15.98;7.83;;;;;;;-1.78;87.64;100882.06;1670920;85;21110;-57
2022/12/18 03:56:27;;;;;;;17.77;7.45;;;;;;;-1.80;86.92;100881.30;1671797;84;21060;-58
2022/12/18 03:58:56;;;;;;;15.88;7.45;;;;;;;-1.87;86.71;100878.67;1647540;85;21090;-58
2022/12/18 04:01:37;;;;;;;14.53;7.80;;;;;;;-1.90;86.35;100895.00;1670506;85;21066;-57
2022/12/18 04:04:08;;;;;;;17.25;7.65;;;;;;;-1.92;86.42;100909.88;1674925;85;21072;-58
2022/12/18 04:06:39;;;;;;;17.82;7.78;;;;;;;-1.93;85.85;100900.58;1655107;85;21039;-58
2022/12/18 04:09:09;;;;;;;14.28;7.08;;;;;;;-1.98;85.70;100911.61;1659379;85;21298;-58
2022/12/18 04:11:43;;;;;;;14.63;6.95;;;;;;;-1.99;85.75;100915.25;1665782;85;21059;-58
2022/12/18 04:14:12;;;;;;;15.50;7.45;;;;;;;-2.00;85.35;100914.87;1653072;85;21067;-57
2022/12/18 04:16:43;;;;;;;14.28;7.58;;;;;;;-2.00;85.41;100917.56;1663780;85;21169;-58
2022/12/18 04:19:15;;;;;;;15.20;7.62;;;;;;;-1.98;85.68;100919.66;1663700;85;21569;-57
2022/12/18 04:21:45;;;;;;;14.63;7.72;;;;;;;-1.97;85.68;100926.75;1658043;85;21489;-57
2022/12/18 04:24:14;;;;;;;14.30;7.20;;;;;;;-1.94;85.71;100929.73;1657836;85;21082;-57
2022/12/18 04:26:45;;;;;;;14.50;7.22;;;;;;;-1.92;85.65;100935.38;1651585;85;21153;-58
2022/12/18 04:29:16;;;;;;;18.67;7.95;;;;;;;-1.92;85.42;100935.87;1665141;85;21562;-59
2022/12/18 04:31:44;;;;;;;15.50;7.47;;;;;;;-1.93;85.22;100947.09;1668043;85;21062;-58
2022/12/18 04:34:13;;;;;;;13.88;7.25;;;;;;;-1.93;85.30;100948.92;1668552;85;21123;-57
2022/12/18 04:36:43;;;;;;;16.75;8.00;;;;;;;-1.93;84.82;100961.00;1672689;85;21154;-57
2022/12/18 04:39:12;;;;;;;16.87;6.62;;;;;;;-1.97;84.40;100962.14;1657487;85;21048;-57
2022/12/18 04:41:42;;;;;;;14.60;7.35;;;;;;;-2.01;84.29;100951.23;1661383;85;21503;-57
2022/12/18 04:44:12;;;;;;;12.68;6.92;;;;;;;-2.02;84.27;100965.14;1664647;84;21115;-58
2022/12/18 04:46:41;;;;;;;15.32;7.00;;;;;;;-2.02;84.07;100975.87;1658275;85;21566;-58
2022/12/18 04:49:12;;;;;;;15.90;7.42;;;;;;;-2.06;83.61;100974.84;1674701;85;21059;-58
2022/12/18 04:51:42;;;;;;;16.97;7.17;;;;;;;-2.10;83.38;100978.21;1668403;85;21083;-58
2022/12/18 04:54:11;;;;;;;17.62;7.37;;;;;;;-2.11;83.23;100982.34;1663189;85;21019;-58
2022/12/18 04:56:39;;;;;;;13.05;6.65;;;;;;;-2.12;83.38;100985.51;1663186;85;21479;-58
2022/12/18 04:59:08;;;;;;;15.58;7.37;;;;;;;-2.15;83.09;100992.42;1662603;85;21058;-58
2022/12/18 05:01:37;;;;;;;16.37;6.70;;;;;;;-2.15;83.30;101000.48;1673845;85;22029;-58
2022/12/18 05:04:07;;;;;;;13.93;6.58;;;;;;;-2.13;83.17;101002.58;1668472;85;22059;-58
2022/12/18 05:06:36;;;;;;;15.08;7.35;;;;;;;-2.17;82.44;101006.91;1668165;85;21503;-58
2022/12/18 05:09:05;;;;;;;15.45;7.30;;;;;;;-2.22;82.55;101001.84;1668898;85;21109;-59
2022/12/18 05:11:38;;;;;;;15.93;7.20;;;;;;;-2.26;82.51;101003.02;1674021;85;21122;-58
2022/12/18 05:14:07;;;;;;;13.25;6.72;;;;;;;-2.30;82.74;101004.18;1683167;85;21107;-58
2022/12/18 05:16:37;;;;;;;18.40;8.00;;;;;;;-2.29;82.88;101012.61;1664559;85;21451;-59
2022/12/18 05:19:05;;;;;;;14.85;7.20;;;;;;;-2.28;83.22;101028.61;1669412;85;21098;-58
2022/12/18 05:21:34;;;;;;;15.48;7.17;;;;;;;-2.23;83.36;101033.67;1670292;85;21087;-58
2022/12/18 05:24:03;;;;;;;14.07;6.60;;;;;;;-2.21;83.18;101035.78;1661771;85;21079;-58
2022/12/18 05:26:33;;;;;;;16.25;7.08;;;;;;;-2.23;82.17;101048.44;1664604;85;21475;-58
2022/12/18 05:29:02;;;;;;;16.57;7.60;;;;;;;-2.28;82.06;101044.72;1692181;83;22015;-58
2022/12/18 05:31:32;;;;;;;14.40;6.92;;;;;;;-2.29;81.96;101044.81;1717095;83;21091;-57
2022/12/18 05:34:02;;;;;;;14.00;6.83;;;;;;;-2.30;82.13;101051.14;1665893;85;21533;-58
2022/12/18 05:36:31;;;;;;;15.10;7.30;;;;;;;-2.31;82.43;101052.97;1672948;85;21035;-57
2022/12/18 05:39:00;;;;;;;16.00;7.22;;;;;;;-2.28;82.36;101064.84;1670865;85;21118;-58
2022/12/18 05:41:28;;;;;;;17.32;7.92;;;;;;;-2.28;82.38;101072.89;1666499;85;21530;-58
2022/12/18 05:43:57;;;;;;;13.83;6.78;;;;;;;-2.28;82.14;101074.23;1663930;85;21098;-59
2022/12/18 05:46:26;;;;;;;15.03;7.83;;;;;;;-2.33;81.62;101084.41;1634603;85;21070;-57
2022/12/18 05:48:54;;;;;;;16.17;7.20;;;;;;;-2.34;81.79;101089.39;1660244;85;21059;-58
2022/12/18 05:51:23;;;;;;;16.52;7.30;;;;;;;-2.33;81.58;101097.83;1673752;85;21069;-58
2022/12/18 05:53:51;;;;;;;14.73;7.60;;;;;;;-2.37;81.12;101094.95;1664475;85;21547;-58
2022/12/18 05:56:22;;;;;;;16.30;7.10;;;;;;;-2.42;81.27;101102.44;1663316;85;21064;-60
2022/12/18 05:58:54;;;;;;;15.70;7.25;;;;;;;-2.45;81.18;101099.95;1669959;85;21064;-62
2022/12/18 06:01:26;;;;;;;18.65;7.12;;;;;;;-2.46;81.54;101109.44;1659892;85;21126;-59
2022/12/18 06:03:55;;;;;;;18.55;8.03;;;;;;;-2.44;81.57;101116.44;1669859;85;21027;-59
2022/12/18 06:06:26;;;;;;;15.60;7.53;;;;;;;-2.44;81.65;101123.62;1670842;85;21084;-59
2022/12/18 06:08:55;;;;;;;19.25;8.38;;;;;;;-2.41;81.89;101126.11;1676271;85;21055;-59
2022/12/18 06:11:26;;;;;;;15.43;7.33;;;;;;;-2.37;81.93;101133.01;1678785;85;21514;-58
2022/12/18 06:13:55;;;;;;;15.05;6.30;;;;;;;-2.35;81.81;101133.77;1680332;83;21142;-58
2022/12/18 06:16:27;;;;;;;14.70;6.72;;;;;;;-2.41;80.13;101131.48;1662681;85;21038;-59
2022/12/18 06:19:01;;;;;;;14.95;6.80;;;;;;;-2.46;80.53;101137.14;1663470;85;21103;-59
2022/12/18 06:21:29;;;;;;;12.60;5.55;;;;;;;-2.46;80.43;101159.94;1659749;85;21079;-59
2022/12/18 06:24:00;;;;;;;15.43;6.97;;;;;;;-2.48;79.89;101156.48;1663513;85;21083;-59
2022/12/18 06:26:29;;;;;;;23.00;6.80;;;;;;;-2.51;79.96;101157.16;1658022;85;21616;-58
2022/12/18 06:28:57;;;;;;;14.58;6.75;;;;;;;-2.50;80.27;101155.72;1663226;85;21566;-59
2022/12/18 06:31:26;;;;;;;16.50;7.03;;;;;;;-2.48;80.02;101152.47;1665693;85;21533;-59
2022/12/18 06:33:57;;;;;;;12.73;6.10;;;;;;;-2.47;80.08;101158.70;1671700;85;21514;-58
2022/12/18 06:36:31;;;;;;;16.60;6.83;;;;;;;-2.46;79.50;101162.63;1664017;85;21067;-59
2022/12/18 06:38:59;;;;;;;12.47;6.55;;;;;;;-2.51;79.39;101172.78;1677413;85;21054;-58
2022/12/18 06:41:29;;;;;;;16.37;7.00;;;;;;;-2.54;79.02;101173.45;1664740;85;21639;-59
2022/12/18 06:43:57;;;;;;;14.20;6.90;;;;;;;-2.55;79.53;101180.63;1677125;85;21680;-58
2022/12/18 06:46:28;;;;;;;17.25;7.25;;;;;;;-2.52;79.57;101186.29;1666594;85;21078;-59
2022/12/18 06:48:56;;;;;;;14.07;7.35;;;;;;;-2.52;79.81;101177.77;1670586;85;21543;-58
2022/12/18 06:51:26;;;;;;;17.23;7.42;;;;;;;-2.51;79.57;101189.36;1674718;85;21563;-58
2022/12/18 06:53:55;;;;;;;15.08;6.95;;;;;;;-2.50;79.74;101190.61;1677978;85;21056;-58
2022/12/18 06:56:23;;;;;;;17.27;7.05;;;;;;;-2.48;79.65;101190.03;1659795;85;21549;-59
2022/12/18 06:58:52;;;;;;;14.28;6.60;;;;;;;-2.48;79.67;101199.42;1678530;85;21090;-58
2022/12/18 07:01:21;;;;;;;15.58;6.70;;;;;;;-2.50;79.15;101201.34;1663560;85;21063;-59
2022/12/18 07:03:56;;;;;;;14.65;6.78;;;;;;;-2.53;78.84;101210.05;1661610;85;21523;-59
2022/12/18 07:06:25;;;;;;;24.35;8.38;;;;;;;-2.56;79.17;101205.73;1660039;85;21130;-58
2022/12/18 07:08:54;;;;;;;18.27;8.30;;;;;;;-2.54;79.54;101221.27;1666045;85;21115;-59
2022/12/18 07:11:23;;;;;;;13.88;6.70;;;;;;;-2.51;79.77;101214.84;1670446;85;21456;-58
2022/12/18 07:13:52;;;;;;;14.68;6.42;;;;;;;-2.51;79.18;101229.60;1671565;85;21103;-59
2022/12/18 07:16:21;;;;;;;13.85;6.55;;;;;;;-2.56;78.83;101217.33;1659968;85;21058;-59
2022/12/18 07:18:51;;;;;;;12.45;5.83;;;;;;;-2.61;79.09;101211.35;1676803;85;21481;-59
2022/12/18 07:21:21;;;;;;;17.80;6.87;;;;;;;-2.66;78.90;101232.23;1665365;85;21047;-59
2022/12/18 07:23:50;;;;;;;20.25;8.00;;;;;;;-2.68;79.23;101221.21;1676202;85;21052;-58
2022/12/18 07:26:20;;;;;;;14.68;6.87;;;;;;;-2.67;79.30;101229.16;1666965;85;21511;-60
2022/12/18 07:28:49;;;;;;;19.30;7.05;;;;;;;-2.64;79.63;101236.16;1670221;85;21455;-58
2022/12/18 07:31:22;;;;;;;15.55;6.60;;;;;;;-2.61;79.75;101240.00;1664931;85;21047;-59
2022/12/18 07:33:51;;;;;;;13.68;6.40;;;;;;;-2.61;79.79;101255.61;1669211;85;21095;-59
2022/12/18 07:36:21;;;;;;;14.50;6.45;;;;;;;-2.63;79.72;101260.21;1669224;85;21506;-60
2022/12/18 07:38:51;;;;;;;14.47;6.37;;;;;;;-2.63;79.85;101269.59;1652488;85;21479;-58
2022/12/18 07:41:20;;;;;;;15.85;6.47;;;;;;;-2.59;79.95;101275.67;1674773;85;21289;-58
2022/12/18 07:43:50;;;;;;;15.40;6.37;;;;;;;-2.61;78.94;101274.39;1663320;85;21517;-59
2022/12/18 07:46:19;;;;;;;16.52;6.30;;;;;;;-2.65;78.70;101278.22;1669113;85;21081;-59
2022/12/18 07:48:48;;;;;;;16.48;6.47;;;;;;;-2.71;78.30;101282.61;1663311;85;21517;-60
2022/12/18 07:51:20;;;;;;;15.70;6.60;;;;;;;-2.71;78.58;101299.17;1666304;83;21082;-59
2022/12/18 07:53:50;;;;;;;12.70;5.90;;;;;;;-2.74;78.47;101293.99;1660548;83;21125;-58
2022/12/18 07:56:22;;;;;;;14.35;5.87;;;;;;;-2.76;78.54;101313.34;1673388;84;21103;-59
2022/12/18 07:58:53;;;;;;;13.83;5.87;;;;;;;-2.79;78.51;101305.00;1674040;85;21075;-57
2022/12/18 08:01:23;;;;;;;13.15;5.87;;;;;;;-2.83;77.94;101295.40;1646801;85;21507;-58
2022/12/18 08:03:52;;;;;;;16.62;6.87;;;;;;;-2.84;78.45;101308.91;1672640;85;21047;-59
2022/12/18 08:06:22;;;;;;;13.38;6.47;;;;;;;-2.83;78.99;101310.16;1676738;85;21076;-59
2022/12/18 08:08:54;;;;;;;14.30;6.83;;;;;;;-2.78;79.16;101308.54;1708805;83;21044;-58
2022/12/18 08:11:23;;;;;;;12.10;5.58;;;;;;;-2.75;79.49;101321.77;1682819;83;21063;-58
2022/12/18 08:13:52;;;;;;;13.43;6.60;;;;;;;-2.71;78.92;101323.31;1674119;85;21090;-59
2022/12/18 08:16:21;;;;;;;10.23;5.20;;;;;;;-2.72;78.12;101329.16;1672383;83;21087;-59
2022/12/18 08:18:51;;;;;;;12.68;5.25;;;;;;;-2.75;77.74;101334.70;1689111;84;21062;-60
2022/12/18 08:21:24;;;;;;;13.00;6.42;;;;;;;-2.78;77.69;101344.75;1665551;84;21102;-59
2022/12/18 08:23:55;;;;;;;13.32;5.65;;;;;;;-2.80;77.87;101348.86;1685402;84;21072;-58
2022/12/18 08:26:23;;;;;;;13.55;6.17;;;;;;;-2.79;78.05;101345.70;1685281;83;21071;-59
2022/12/18 08:28:54;;;;;;;14.35;6.45;;;;;;;-2.78;78.31;101362.17;1697032;84;21061;-58
2022/12/18 08:31:22;;;;;;;14.70;6.25;;;;;;;-2.74;78.27;101355.20;1690911;84;21523;-59
2022/12/18 08:33:52;;;;;;;14.33;6.35;;;;;;;-2.73;78.44;101356.07;1696100;84;21179;-58
2022/12/18 08:36:23;;;;;;;12.05;5.78;;;;;;;-2.75;78.56;101358.84;1695368;83;21012;-58
2022/12/18 08:38:54;;;;;;;17.92;7.20;;;;;;;-2.76;78.24;101360.27;1678076;85;21091;-58
2022/12/18 08:41:24;;;;;;;15.55;7.37;;;;;;;-2.79;78.36;101353.27;1679337;85;21078;-59
2022/12/18 08:46:42;;;;;;;14.78;6.72;;;;;;;-2.74;78.46;101355.68;1689546;83;21036;-59
2022/12/18 08:49:11;;;;;;;16.00;6.90;;;;;;;-2.73;78.21;101361.43;1667379;85;21059;-58
2022/12/18 08:51:40;;;;;;;15.18;6.72;;;;;;;-2.70;78.26;101358.57;1677607;85;21475;-59
2022/12/18 08:54:11;;;;;;;14.45;5.70;;;;;;;-2.69;78.22;101368.34;1681301;85;21150;-58
2022/12/18 08:56:40;;;;;;;13.45;5.92;;;;;;;-2.67;77.29;101369.13;1701048;84;21123;-58
2022/12/18 08:59:09;;;;;;;15.28;6.30;;;;;;;-2.75;76.68;101378.95;1713908;83;21063;-59
2022/12/18 09:01:40;;;;;;;14.07;5.95;;;;;;;-2.78;76.72;101386.31;1686184;84;21086;-60
2022/12/18 09:04:09;;;;;;;12.23;5.08;;;;;;;-2.81;76.73;101386.02;1686631;85;21059;-59
2022/12/18 09:06:38;;;;;;;13.03;5.87;;;;;;;-2.82;76.85;101386.10;1673348;84;21535;-60
2022/12/18 09:09:09;;;;;;;13.25;5.83;;;;;;;-2.80;77.36;101385.54;1665153;85;21480;-59
2022/12/18 09:11:38;;;;;;;11.80;5.70;;;;;;;-2.75;77.59;101383.45;1664727;85;21091;-59
2022/12/18 09:14:07;;;;;;;11.73;5.70;;;;;;;-2.72;77.49;101399.37;1675899;85;21151;-58
2022/12/18 09:16:36;;;;;;;12.63;5.10;;;;;;;-2.69;77.12;101404.08;1666459;85;21545;-58
2022/12/18 09:19:05;;;;;;;11.83;4.83;;;;;;;-2.69;76.68;101396.03;1668210;85;21098;-59
2022/12/18 09:21:38;;;;;;;13.18;5.35;;;;;;;-2.69;76.77;101398.72;1663963;85;21067;-60
2022/12/18 09:24:12;;;;;;;15.50;5.83;;;;;;;-2.68;76.60;101399.58;1662640;85;21055;-60
2022/12/18 09:26:41;;;;;;;17.67;6.97;;;;;;;-2.66;76.41;101397.67;1674784;85;21083;-61
2022/12/18 09:29:12;;;;;;;15.40;6.03;;;;;;;-2.65;76.55;101405.63;1664548;85;21565;-60
2022/12/18 09:31:44;;;;;;;13.98;5.50;;;;;;;-2.62;76.67;101409.95;1671500;85;21071;-60
2022/12/18 09:34:14;;;;;;;17.00;6.33;;;;;;;-2.62;76.38;101408.14;1677957;84;21516;-61
2022/12/18 09:36:42;;;;;;;17.50;6.83;;;;;;;-2.60;76.57;101408.95;1682855;84;21042;-61
2022/12/18 09:39:11;;;;;;;14.60;5.97;;;;;;;-2.57;76.78;101426.69;1683234;85;21185;-61
2022/12/18 09:41:49;;;;;;;11.18;5.17;;;;;;;-2.52;76.46;101423.73;1690303;85;21081;-60
2022/12/18 09:44:35;;;;;;;14.20;5.40;;;;;;;-2.57;75.68;101412.80;1658827;85;21607;-59
2022/12/18 09:47:33;;;;;;;12.05;5.00;;;;;;;-2.62;75.53;101432.76;1670676;85;21118;-61
2022/12/18 09:50:33;;;;;;;13.60;5.15;;;;;;;-2.62;75.26;101437.65;1679473;84;21642;-62
2022/12/18 09:53:16;;;;;;;10.60;4.72;;;;;;;-2.65;74.79;101444.53;1674890;84;21166;-61
2022/12/18 09:55:46;;;;;;;9.70;4.78;;;;;;;-2.71;74.47;101437.31;1692412;85;21132;-61
2022/12/18 09:58:23;;;;;;;10.32;4.83;;;;;;;-2.72;74.99;101440.47;1659861;85;21064;-60
2022/12/18 10:00:54;;;;;;;10.70;4.85;;;;;;;-2.69;75.31;101434.06;1676039;85;21562;-61
2022/12/18 10:03:23;;;;;;;19.35;5.47;;;;;;;-2.67;75.32;101442.89;1690969;85;21088;-61
2022/12/18 10:06:17;;;;;;;9.88;5.28;;;;;;;-2.67;75.17;101436.18;1683923;84;21058;-59
2022/12/18 10:08:55;;;;;;;15.58;5.58;;;;;;;-2.68;75.36;101450.07;1658624;86;21528;-60
